This is the latest recevied weather packets stored in our database for station/object R2AKT-13. If no packets are shown the sender has not sent any weather packets the latest 10 day(s).
| Time | Temp. | Humidity | Pressure | Rain* | Wind** | Luminosity | Snow |
|---|---|---|---|---|---|---|---|
| 1788615736 | 17.22° C | 64% | 971.8 hPa | - | 2.68 m/s, 257° | - | - |
| 1788615156 | 17.22° C | 65% | 971.9 hPa | - | 1.79 m/s, 205° | - | - |
| 1788614612 | 16.67° C | 67% | 971.8 hPa | - | 3.13 m/s, 251° | - | - |
| 1788614036 | 16.11° C | 65% | 971.4 hPa | - | 2.24 m/s, 263° | - | - |
| 1788613481 | 17.22° C | 60% | 971.4 hPa | - | 1.79 m/s, 236° | - | - |
| 1788612901 | 17.22° C | 64% | 971.3 hPa | - | 2.24 m/s, 234° | - | - |
| 1788612432 | 17.22° C | 63% | 970.8 hPa | - | 2.24 m/s, 256° | - | - |
| 1788611921 | 17.22° C | 67% | 970.9 hPa | - | 0.89 m/s, 234° | - | - |
| 1788611336 | 17.22° C | 67% | 970.8 hPa | - | 1.79 m/s, 250° | - | - |
| 1788610823 | 17.22° C | 66% | 970.4 hPa | - | 2.24 m/s, 227° | - | - |
| 1788610244 | 17.22° C | 69% | 970.3 hPa | - | 1.79 m/s, 264° | - | - |
| 1788609652 | 17.22° C | 69% | 970.1 hPa | - | 2.24 m/s, 251° | - | - |
| 1788609132 | 16.67° C | 72% | 970.1 hPa | - | 1.79 m/s, 264° | - | - |
| 1788608576 | 17.22° C | 67% | 969.9 hPa | - | 1.79 m/s, 245° | - | - |
| 1788608046 | 17.22° C | 67% | 969.4 hPa | - | 3.13 m/s, 267° | - | - |
| 1788607511 | 17.78° C | 67% | 969.5 hPa | - | 1.79 m/s, 266° | - | - |
| 1788606911 | 17.22° C | 69% | 969.3 hPa | - | 1.79 m/s, 255° | - | - |
| 1788604696 | 17.22° C | 65% | 968.1 hPa | - | 2.24 m/s, 263° | - | - |
| 1788604141 | 16.67° C | 69% | 968.4 hPa | - | 1.79 m/s, 261° | - | - |
| 1788603651 | 16.67° C | 70% | 968.3 hPa | - | 1.34 m/s, 240° | - | - |
| 1788603091 | 16.11° C | 72% | 968.1 hPa | - | 0.89 m/s, 253° | - | - |
| 1788602571 | 16.11° C | 74% | 968 hPa | - | 1.34 m/s, 216° | - | - |
| 1788602041 | 15.56° C | 77% | 967.7 hPa | - | 1.34 m/s, 217° | - | - |
| 1788601441 | 15° C | 80% | 967.5 hPa | - | 2.68 m/s, 204° | - | - |
| 1788600881 | 14.44° C | 81% | 967 hPa | - | 3.13 m/s, 201° | - | - |
* Rain since midnight (hover to see other rain measurements)
** Current wind speed in m/s (hover to see current wind gust speed)